FW4421 Thessaloniki GR current weather conditions

sailwx.info

Wind from 046 at 1 knots gusting 1

Air temperature 7.2° C
Dewpoint 2.3° C

Last reported at 2019-Dec-06 00:00 UTC.
Time now 2019-Dec-06 01:09 UTC

Location: N 40°39' E 022°56'.
View on Google Maps.

See reports from other nearby stations

  
Tides and Currents Weather Stations Pressure Air Temp Water Temp Dewpoint Dewpoint Depression Visibility Wind Speed Wind Dir Waves Ship Positions
date/time (UTC)wind fromknots sea level pressurealtimeterstation pressurevisibilityair tempwater tempwave heightnotes
2019-Dec-06 00:00 046 1 gusting 1 7.2
2019-Dec-05 23:50 081 2 gusting 2 7.2
2019-Dec-05 23:40 045 2 gusting 3 7.2
2019-Dec-05 23:30 027 2 gusting 2 7.2
2019-Dec-05 23:20 058 2 gusting 2 7.2
2019-Dec-05 23:10 001 3 gusting 3 7.2
2019-Dec-05 23:00 021 3 gusting 3 7.2
2019-Dec-05 22:50 012 1 gusting 2 7.2
2019-Dec-05 22:40 348 2 gusting 3 7.2
2019-Dec-05 22:30 014 2 gusting 3 7.2
2019-Dec-05 22:20 060 2 gusting 3 7.2
2019-Dec-05 22:10 001 2 gusting 3 7.2
2019-Dec-05 22:00 007 2 gusting 2 7.8
2019-Dec-05 21:50 341 2 gusting 2 7.8
2019-Dec-05 21:40 020 2 gusting 2 7.8
2019-Dec-05 21:30 036 1 gusting 2 7.8
2019-Dec-05 21:20 090 1 gusting 2 7.8
2019-Dec-05 21:10 021 2 gusting 3 7.8
2019-Dec-05 21:00 016 2 gusting 3 7.8
2019-Dec-05 20:50 315 1 gusting 1 7.8
2019-Dec-05 20:40 001 2 gusting 2 8.3
2019-Dec-05 20:30 034 2 gusting 3 8.3
2019-Dec-05 20:20 001 2 gusting 2 8.3
2019-Dec-05 20:10 314 0 gusting 1 7.8
2019-Dec-05 20:00 7.8
2019-Dec-05 19:50 181 8.3
2019-Dec-05 19:40 135 8.3
2019-Dec-05 19:30 8.3
2019-Dec-05 19:20 001 0 gusting 1 8.3
2019-Dec-05 19:10 001 2 gusting 2 8.3
2019-Dec-05 19:00 8.3
2019-Dec-05 18:50 068 0 gusting 1 8.3
2019-Dec-05 18:40 035 1 gusting 1 8.3
2019-Dec-05 18:30 055 1 gusting 1 8.3
2019-Dec-05 18:20 001 2 gusting 2 8.3
2019-Dec-05 18:10 010 2 gusting 2 8.3
2019-Dec-05 18:00 314 0 gusting 1 8.3
2019-Dec-05 17:50 019 1 gusting 1 8.3
2019-Dec-05 17:40 101 0 gusting 1 8.3
2019-Dec-05 17:30 101 1 gusting 1 8.3
2019-Dec-05 17:20 090 1 gusting 2 8.3
2019-Dec-05 17:10 046 1 gusting 2 8.3
2019-Dec-05 17:00 003 2 gusting 2 8.3
2019-Dec-05 16:50 027 1 gusting 1 8.3
2019-Dec-05 16:40 029 1 gusting 3 7.8
2019-Dec-05 16:30 015 2 gusting 3 8.3
2019-Dec-05 16:20 046 1 gusting 2 8.3
2019-Dec-05 16:10 031 2 gusting 2 8.3
2019-Dec-05 16:00 046 1 gusting 2 8.3
2019-Dec-05 15:50 359 1 gusting 1 8.3
2019-Dec-05 15:40 005 0 gusting 1 8.3
2019-Dec-05 15:30 001 1 gusting 3 8.3
2019-Dec-05 15:20 001 1 gusting 2 8.3
2019-Dec-05 15:10 019 4 gusting 4 8.3
2019-Dec-05 15:00 038 2 gusting 3 8.3
2019-Dec-05 14:40 061 4 gusting 6 8.3
2019-Dec-05 14:30 007 3 gusting 3 8.9
2019-Dec-05 14:20 001 3 gusting 3 8.9
2019-Dec-05 14:10 335 2 gusting 3 8.9
2019-Dec-05 14:00 009 3 gusting 3 8.9
2019-Dec-05 13:50 337 3 gusting 3 9.4
2019-Dec-05 13:40 030 2 gusting 3 9.4
2019-Dec-05 13:30 335 3 gusting 3 9.4
2019-Dec-05 13:20 327 3 gusting 4 9.4
2019-Dec-05 13:10 001 2 gusting 2 9.4
2019-Dec-05 13:00 001 1 gusting 2 10.0
2019-Dec-05 12:50 103 0 gusting 1 10.6
2019-Dec-05 12:40 270 0 gusting 1 10.6
2019-Dec-05 12:30 181 0 gusting 1 10.6
2019-Dec-05 12:20 10.6
2019-Dec-05 12:10 046 0 gusting 1 10.6
2019-Dec-05 12:00 001 0 gusting 1 10.0
2019-Dec-05 11:50 046 2 gusting 2 10.0
2019-Dec-05 11:40 021 2 gusting 3 9.4
2019-Dec-05 11:30 068 3 gusting 3 9.4
2019-Dec-05 11:20 055 2 gusting 3 9.4
2019-Dec-05 11:10 046 4 gusting 4 9.4
2019-Dec-05 11:00 055 4 gusting 4 8.9
2019-Dec-05 10:50 099 4 gusting 4 8.9
2019-Dec-05 10:40 083 3 gusting 3 8.9
2019-Dec-05 10:30 070 3 gusting 3 8.9
2019-Dec-05 10:20 019 2 gusting 2 9.4
2019-Dec-05 10:10 077 3 gusting 5 8.9
2019-Dec-05 10:00 104 4 gusting 5 8.9
2019-Dec-05 09:50 112 2 gusting 2 8.9
2019-Dec-05 09:40 096 3 gusting 3 8.9
2019-Dec-05 09:30 038 2 gusting 3 8.3
2019-Dec-05 09:20 046 2 gusting 2 8.3
2019-Dec-05 09:10 056 3 gusting 3 8.3
2019-Dec-05 09:00 101 2 gusting 3 8.3
2019-Dec-05 08:50 080 3 gusting 3 8.3
2019-Dec-05 08:40 055 2 gusting 4 8.3
2019-Dec-05 08:30 055 3 gusting 4 8.3
2019-Dec-05 08:20 001 1 gusting 2 8.3
2019-Dec-05 08:10 090 1 gusting 3 7.8
2019-Dec-05 08:00 108 3 gusting 3 7.8
2019-Dec-05 07:50 078 3 gusting 4 7.8
2019-Dec-05 07:40 094 4 gusting 4 7.8
2019-Dec-05 07:30 103 3 gusting 4 7.2
2019-Dec-05 07:20 085 4 gusting 6 7.8
2019-Dec-05 07:10 055 2 gusting 2 7.8
2019-Dec-05 07:00 046 2 gusting 3 7.2
2019-Dec-05 06:50 353 2 gusting 3 7.2
2019-Dec-05 06:40 357 2 gusting 2 7.2
2019-Dec-05 06:30 135 3 gusting 3 7.2
2019-Dec-05 06:20 106 3 gusting 3 6.7
2019-Dec-05 06:10 106 5 gusting 6 6.7
2019-Dec-05 06:00 107 5 gusting 6 6.7
2019-Dec-05 05:50 101 3 gusting 5 6.7
2019-Dec-05 05:40 090 2 gusting 3 6.7
2019-Dec-05 05:30 090 1 gusting 1 6.7
2019-Dec-05 05:20 090 1 gusting 3 6.7
2019-Dec-05 05:10 089 3 gusting 5 6.7
2019-Dec-05 05:00 084 3 gusting 5 6.7
2019-Dec-05 04:50 077 4 gusting 6 6.7
2019-Dec-05 04:40 105 5 gusting 6 6.7
2019-Dec-05 04:30 127 3 gusting 6 6.7
2019-Dec-05 04:20 101 5 gusting 7 6.7
2019-Dec-05 04:10 118 5 gusting 7 6.7
2019-Dec-05 04:00 076 3 gusting 3 6.7
2019-Dec-05 03:50 090 3 gusting 3 6.7
2019-Dec-05 03:40 090 4 gusting 6 6.7
2019-Dec-05 03:30 122 4 gusting 4 6.7
2019-Dec-05 03:20 085 6 gusting 9 6.7
2019-Dec-05 03:10 094 6 gusting 7 6.7
2019-Dec-05 03:00 060 6 gusting 6 6.7
2019-Dec-05 02:50 095 6 gusting 6 6.7
2019-Dec-05 02:40 090 4 gusting 5 6.7
2019-Dec-05 02:30 080 5 gusting 6 6.7
2019-Dec-05 02:20 119 6 gusting 9 6.7
2019-Dec-05 02:10 090 6 gusting 7 6.7
2019-Dec-05 02:00 066 6 gusting 6 6.7
2019-Dec-05 01:50 112 5 gusting 6 6.7
2019-Dec-05 01:40 090 4 gusting 6 6.7
2019-Dec-05 01:30 135 5 gusting 5 6.7
2019-Dec-05 01:20 090 4 gusting 6 6.7
2019-Dec-05 01:10 102 2 gusting 2 6.7
2019-Dec-05 01:00 062 2 gusting 3 6.7
2019-Dec-05 00:50 014 3 gusting 3 7.2
2019-Dec-05 00:40 046 3 gusting 3 6.7
2019-Dec-05 00:30 068 3 gusting 3 6.1
2019-Dec-05 00:20 356 3 gusting 3 6.1
2019-Dec-05 00:10 025 4 gusting 4 6.1
2019-Dec-05 00:00 001 4 gusting 4 6.1
2019-Dec-04 23:50 001 2 gusting 3 6.1
2019-Dec-04 23:40 015 3 gusting 3 6.1
2019-Dec-04 23:30 001 2 gusting 3 6.1
2019-Dec-04 23:20 010 2 gusting 3 6.1
2019-Dec-04 23:10 016 4 gusting 5 6.1
2019-Dec-04 23:00 001 5 gusting 5 6.1
2019-Dec-04 22:50 052 4 gusting 5 6.1
2019-Dec-04 22:40 013 4 gusting 5 6.1
2019-Dec-04 22:30 023 3 gusting 3 6.1
2019-Dec-04 22:20 025 3 gusting 3 6.1
2019-Dec-04 22:10 001 3 gusting 3 6.1
2019-Dec-04 22:00 070 4 gusting 4 6.1
2019-Dec-04 21:50 031 2 gusting 3 6.1
2019-Dec-04 21:40 046 3 gusting 3 6.1
2019-Dec-04 21:30 022 4 gusting 5 5.6
2019-Dec-04 21:20 018 4 gusting 5 6.1
2019-Dec-04 21:10 337 2 gusting 2 6.1
2019-Dec-04 21:00 006 2 gusting 2 6.1
2019-Dec-04 20:50 027 3 gusting 3 6.1
2019-Dec-04 20:40 025 3 gusting 3 6.1
2019-Dec-04 20:30 045 3 gusting 3 5.6
2019-Dec-04 20:20 053 3 gusting 4 5.6
2019-Dec-04 20:10 001 2 gusting 3 5.6
2019-Dec-04 20:00 028 4 gusting 4 5.6
2019-Dec-04 19:50 025 3 gusting 4 5.6
2019-Dec-04 19:40 046 2 gusting 2 5.6
2019-Dec-04 19:30 023 2 gusting 2 5.6
2019-Dec-04 19:20 015 2 gusting 2 5.6
2019-Dec-04 19:10 060 2 gusting 3 5.6
2019-Dec-04 19:00 025 4 gusting 4 5.6
2019-Dec-04 18:50 341 3 gusting 3 5.6
2019-Dec-04 18:40 013 4 gusting 6 5.6
2019-Dec-04 18:30 001 6 gusting 6 5.6
2019-Dec-04 18:20 019 5 gusting 6 5.6
2019-Dec-04 18:10 349 6 gusting 6 5.6
2019-Dec-04 18:00 323 6 gusting 6 5.6
2019-Dec-04 17:50 001 5 gusting 6 5.6
2019-Dec-04 17:40 033 5 gusting 6 5.6
2019-Dec-04 17:30 019 4 gusting 4 5.6
2019-Dec-04 17:20 020 5 gusting 6 5.6
2019-Dec-04 17:10 001 4 gusting 5 5.6
2019-Dec-04 17:00 028 5 gusting 6 5.6
2019-Dec-04 16:50 021 3 gusting 3 5.6
2019-Dec-04 16:40 022 4 gusting 4 5.6
2019-Dec-04 16:30 349 5 gusting 6 5.6
2019-Dec-04 16:20 339 5 gusting 6 5.6
2019-Dec-04 16:10 337 5 gusting 5 5.6
2019-Dec-04 16:00 019 3 gusting 4 5.6
2019-Dec-04 15:50 023 4 gusting 4 5.6
2019-Dec-04 15:40 348 5 gusting 6 5.6
2019-Dec-04 15:30 008 2 gusting 4 5.6
2019-Dec-04 15:20 015 2 gusting 2 5.6
2019-Dec-04 15:10 046 3 gusting 3 5.6
2019-Dec-04 15:00 027 4 gusting 4 5.6
2019-Dec-04 14:50 330 4 gusting 6 5.6
2019-Dec-04 14:40 347 3 gusting 3 5.6
2019-Dec-04 14:30 068 3 gusting 3 5.6
2019-Dec-04 14:20 315 2 gusting 2 5.6
2019-Dec-04 14:10 026 3 gusting 3 5.6
2019-Dec-04 14:00 014 4 gusting 5 5.6
2019-Dec-04 13:50 001 2 gusting 3 5.6
2019-Dec-04 13:40 248 6 gusting 6 5.6
2019-Dec-04 13:30 306 5 gusting 6 5.6
2019-Dec-04 13:20 023 3 gusting 3 5.6
2019-Dec-04 13:10 014 5 gusting 7 5.6
2019-Dec-04 13:00 326 6 gusting 7 5.6
2019-Dec-04 12:50 338 7 gusting 7 5.6
2019-Dec-04 12:40 012 4 gusting 5 5.6
2019-Dec-04 12:30 281 6 gusting 7 5.6
2019-Dec-04 12:20 001 6 gusting 6 5.6
2019-Dec-04 12:10 001 6 gusting 8 5.6
2019-Dec-04 12:00 038 6 gusting 6 5.6
2019-Dec-04 11:50 010 6 gusting 7 5.0
2019-Dec-04 11:40 350 5 gusting 6 5.0
2019-Dec-04 11:30 046 4 gusting 6 5.6
2019-Dec-04 11:20 294 3 gusting 5 5.0
2019-Dec-04 11:10 001 5 gusting 6 5.0
2019-Dec-04 11:00 349 5 gusting 6 5.0
2019-Dec-04 10:50 334 6 gusting 6 5.0
2019-Dec-04 10:40 037 4 gusting 5 5.0
2019-Dec-04 10:30 001 6 gusting 6 4.4
2019-Dec-04 10:20 014 5 gusting 5 4.4
2019-Dec-04 10:10 045 4 gusting 4 5.0
2019-Dec-04 10:00 001 2 gusting 3 4.4
2019-Dec-04 09:50 006 5 gusting 7 4.4
2019-Dec-04 09:40 322 5 gusting 6 4.4
2019-Dec-04 09:30 337 3 gusting 3 4.4
2019-Dec-04 09:20 045 3 gusting 4 4.4
2019-Dec-04 09:10 330 4 gusting 5 3.9
2019-Dec-04 09:00 090 3 gusting 3 3.9
2019-Dec-04 08:50 332 4 gusting 5 3.9
2019-Dec-04 08:40 347 3 gusting 4 3.9
2019-Dec-04 08:30 346 5 gusting 5 3.9
2019-Dec-04 08:20 022 4 gusting 4 3.9
2019-Dec-04 08:10 014 5 gusting 6 3.9
2019-Dec-04 08:00 019 6 gusting 6 3.9
2019-Dec-04 07:50 021 3 gusting 3 3.9
2019-Dec-04 07:40 001 5 gusting 5 3.9
2019-Dec-04 07:30 030 5 gusting 6 3.3
2019-Dec-04 07:20 054 4 gusting 5 3.3
2019-Dec-04 07:10 023 6 gusting 6 3.3
2019-Dec-04 07:00 068 6 gusting 6 3.3
2019-Dec-04 06:50 046 5 gusting 5 3.3
2019-Dec-04 06:40 067 5 gusting 5 2.8
2019-Dec-04 06:30 348 6 gusting 6 2.8
2019-Dec-04 06:20 270 8 gusting 9 2.8
2019-Dec-04 06:10 001 6 gusting 6 2.8
2019-Dec-04 06:00 001 7 gusting 7 2.8
2019-Dec-04 05:50 023 7 gusting 7 2.8
2019-Dec-04 05:40 001 5 gusting 6 2.2
2019-Dec-04 05:30 031 5 gusting 5 2.2
2019-Dec-04 05:20 344 5 gusting 5 2.2
2019-Dec-04 05:10 021 5 gusting 6 2.2
2019-Dec-04 05:00 040 6 gusting 6 2.2
2019-Dec-04 04:50 014 5 gusting 6 2.2
2019-Dec-04 04:40 327 5 gusting 7 2.2
2019-Dec-04 04:30 012 6 gusting 6 2.2
2019-Dec-04 04:20 051 6 gusting 6 2.2
2019-Dec-04 04:10 028 6 gusting 6 2.2
2019-Dec-04 04:00 052 4 gusting 5 2.8
2019-Dec-04 03:50 001 7 gusting 9 2.8
2019-Dec-04 03:40 001 7 gusting 9 2.8
2019-Dec-04 03:30 001 6 gusting 8 2.8
2019-Dec-04 03:20 027 6 gusting 6 2.8
2019-Dec-04 03:10 021 7 gusting 11 2.8
2019-Dec-04 03:00 065 7 gusting 8 2.8
2019-Dec-04 02:50 054 9 gusting 12 3.3
2019-Dec-04 02:40 001 6 gusting 8 3.3
2019-Dec-04 02:30 029 8 gusting 9 3.3
2019-Dec-04 02:20 019 7 gusting 9 3.3
2019-Dec-04 02:10 314 6 gusting 8 3.3
2019-Dec-04 02:00 021 9 gusting 12 3.3
2019-Dec-04 01:50 021 7 gusting 8 3.3
2019-Dec-04 01:40 331 5 gusting 6 3.3
2019-Dec-04 01:30 023 6 gusting 6 3.3
2019-Dec-04 01:20 337 8 gusting 9 3.3
2019-Dec-04 01:10 007 8 gusting 9 3.3
2019-Dec-04 01:00 034 5 gusting 5 3.9